Berwyn, New York
Current Conditions -  °F | °C
As of 6:54 PM on Friday 21 Nov 2014 (Local Time) from KSYR Reporting Station
Scattered Clouds Scattered Clouds  
Wind Chill: -9°   Ceiling: Unl
Heat Index: -3°   Visibility: 10mi
Dew Point: -10°   Wind: 12mph
Humidity: 60%   Direction: 230°SW
Pressure: 30.42"   Gusts: NA
Location:  42.8894°N, 76.1084°W
Report Text: KSYR 212354Z 23010KT 10SM FEW050 SCT070 M03/M10 A3042 RMK AO2 SLP305 60000 T10331100 10000 21039 51010
Loading
Personal Weather Stations






























Interactive Weather Map New forecast layout! Learn more

10-Day Weather Forecast

Advertisements
Track Severe Weather on mobile